Time;durP1;ratioP1;P1;durP2;ratioP2;P2;SDS_P1;SDS_P2;PMS_P1;PMS_P2;Temp;Humidity;BMP_temperature;BMP_pressure;BME280_temperature;BME280_humidity;BME280_pressure;Samples;Min_cycle;Max_cycle;Signal;HPM_P1;HPM_P2
2021/12/25 00:00:15;;;;;;;9.00;5.93;;;12.40;62.70;;;;;;5078143;28;20471;-86
2021/12/25 00:02:43;;;;;;;8.83;6.60;;;12.40;62.40;;;;;;5088909;28;20475;-86
2021/12/25 00:05:11;;;;;;;6.30;4.97;;;12.40;62.20;;;;;;5093387;28;20459;-84
2021/12/25 00:07:39;;;;;;;5.97;5.00;;;12.40;62.40;;;;;;5097746;27;20756;-86
2021/12/25 00:10:09;;;;;;;6.63;5.27;;;12.50;63.10;;;;;;5091563;28;20458;-86
2021/12/25 00:12:36;;;;;;;5.53;4.87;;;12.50;62.10;;;;;;5089785;28;21063;-86
2021/12/25 00:15:04;;;;;;;9.93;4.80;;;12.50;61.70;;;;;;5089289;28;20830;-86
2021/12/25 00:17:32;;;;;;;11.50;7.57;;;12.60;61.60;;;;;;5093983;28;20864;-83
2021/12/25 00:19:59;;;;;;;10.40;6.80;;;12.60;61.30;;;;;;5097472;27;20478;-85
2021/12/25 00:22:26;;;;;;;7.50;5.63;;;12.70;61.20;;;;;;5078724;27;20454;-85
2021/12/25 00:24:52;;;;;;;12.00;5.60;;;12.70;61.00;;;;;;5094766;27;20459;-85
2021/12/25 00:27:38;;;;;;;7.97;5.10;;;12.70;61.00;;;;;;5082743;28;20490;-86
2021/12/25 00:30:20;;;;;;;9.20;5.50;;;12.70;61.00;;;;;;5069714;28;20516;-86
2021/12/25 00:32:53;;;;;;;7.87;5.30;;;12.60;61.00;;;;;;5082660;28;20486;-84
2021/12/25 00:35:20;;;;;;;7.00;6.27;;;12.60;61.10;;;;;;5095492;28;20453;-82
2021/12/25 00:37:48;;;;;;;9.53;6.10;;;12.60;61.30;;;;;;5096159;28;20454;-85
2021/12/25 00:40:16;;;;;;;10.43;6.03;;;12.30;61.70;;;;;;5080017;28;20475;-85
2021/12/25 00:42:44;;;;;;;9.93;5.70;;;12.20;62.50;;;;;;5076567;28;20520;-86
2021/12/25 00:45:11;;;;;;;7.20;5.37;;;11.90;63.40;;;;;;5074469;28;20471;-86
2021/12/25 00:47:38;;;;;;;13.30;6.90;;;11.60;64.70;;;;;;5051408;28;20455;-85
2021/12/25 00:50:06;;;;;;;12.00;5.77;;;11.70;64.80;;;;;;5066044;28;20868;-86
2021/12/25 00:52:34;;;;;;;6.73;5.80;;;11.80;64.30;;;;;;5077621;28;20454;-83
2021/12/25 00:55:04;;;;;;;11.63;7.10;;;11.90;64.20;;;;;;5065050;28;20452;-85
2021/12/25 00:57:31;;;;;;;14.70;7.70;;;12.00;63.80;;;;;;5078018;28;20935;-85
2021/12/25 00:59:59;;;;;;;8.57;5.90;;;12.20;63.60;;;;;;5077279;28;20542;-85
2021/12/25 01:02:26;;;;;;;8.10;5.67;;;12.20;63.10;;;;;;5093458;28;20451;-84
2021/12/25 01:04:53;;;;;;;5.23;4.10;;;12.30;62.80;;;;;;5089219;28;20478;-86
2021/12/25 01:07:20;;;;;;;5.57;4.03;;;12.40;62.60;;;;;;5092207;28;20546;-85
2021/12/25 01:09:48;;;;;;;5.03;4.53;;;12.50;62.40;;;;;;5068968;28;20450;-83
2021/12/25 01:12:16;;;;;;;4.53;3.87;;;12.50;62.10;;;;;;5075272;28;20471;-85
2021/12/25 01:14:48;;;;;;;6.03;5.10;;;12.60;61.90;;;;;;5072204;28;20518;-86
2021/12/25 01:18:01;;;;;;;6.57;4.37;;;12.60;61.70;;;;;;5070989;28;20456;-85
2021/12/25 01:20:44;;;;;;;10.60;4.50;;;12.60;61.50;;;;;;5058350;28;20463;-85
2021/12/25 01:26:43;;;;;;;8.90;6.00;;;12.50;61.00;;;;;;5090169;27;21214;-85
2021/12/25 01:32:18;;;;;;;10.00;5.90;;;12.40;61.90;;;;;;5069973;28;20497;-86
2021/12/25 01:35:25;;;;;;;5.40;4.90;;;12.30;62.10;;;;;;5058628;27;20466;-86
2021/12/25 01:38:22;;;;;;;7.70;5.50;;;12.40;62.20;;;;;;5087480;28;20477;-85
2021/12/25 01:41:17;;;;;;;6.93;5.60;;;12.30;62.30;;;;;;5091390;28;21125;-85
2021/12/25 01:49:53;;;;;;;6.80;5.73;;;12.50;61.50;;;;;;5079960;27;20967;-85
2021/12/25 01:52:26;;;;;;;8.67;5.20;;;12.50;61.30;;;;;;5056028;28;20458;-85
2021/12/25 01:54:54;;;;;;;8.30;5.27;;;12.50;61.20;;;;;;5082004;28;20459;-86
2021/12/25 01:57:22;;;;;;;6.67;5.00;;;12.40;61.20;;;;;;5070556;28;20878;-86
2021/12/25 01:59:49;;;;;;;11.70;5.17;;;12.40;61.30;;;;;;5089232;28;20474;-86
2021/12/25 02:02:16;;;;;;;6.73;5.00;;;12.50;61.30;;;;;;5076162;28;20554;-85
2021/12/25 02:04:43;;;;;;;6.30;5.10;;;12.50;61.10;;;;;;5088881;28;20531;-85
2021/12/25 02:07:11;;;;;;;7.33;5.53;;;12.50;61.00;;;;;;5043732;28;21151;-85
2021/12/25 02:09:40;;;;;;;6.00;4.70;;;12.50;60.80;;;;;;5073337;28;20570;-85
2021/12/25 02:12:10;;;;;;;5.43;4.20;;;12.50;60.80;;;;;;5036078;28;20517;-86
2021/12/25 02:14:37;;;;;;;8.80;4.73;;;12.50;60.70;;;;;;5053912;28;20458;-86
2021/12/25 02:17:16;;;;;;;9.47;5.37;;;12.50;60.70;;;;;;5049666;28;20457;-86
2021/12/25 02:19:50;;;;;;;7.80;4.80;;;12.50;60.60;;;;;;5070824;28;20470;-86
2021/12/25 02:22:19;;;;;;;7.57;5.33;;;12.50;60.70;;;;;;5077510;27;20463;-86
2021/12/25 02:24:46;;;;;;;12.50;5.13;;;12.50;61.00;;;;;;5046294;28;20459;-83
2021/12/25 02:27:13;;;;;;;6.70;5.10;;;12.50;61.00;;;;;;5071752;28;20467;-86
2021/12/25 02:29:41;;;;;;;5.50;4.50;;;12.50;61.20;;;;;;5086681;28;20548;-86
2021/12/25 02:32:09;;;;;;;11.43;5.23;;;12.50;61.30;;;;;;5070073;28;20460;-85
2021/12/25 02:34:39;;;;;;;5.33;4.53;;;12.50;61.20;;;;;;5073785;28;20539;-85
2021/12/25 02:37:08;;;;;;;6.40;4.67;;;12.50;61.00;;;;;;5093519;28;20443;-85
2021/12/25 02:39:38;;;;;;;6.40;4.70;;;12.50;60.90;;;;;;5061841;28;20459;-85
2021/12/25 02:42:05;;;;;;;8.10;4.70;;;12.50;61.00;;;;;;5075236;28;20636;-85
2021/12/25 02:44:32;;;;;;;5.70;4.17;;;12.30;62.50;;;;;;5083002;28;20462;-84
2021/12/25 02:47:09;;;;;;;6.73;4.67;;;12.30;62.00;;;;;;5090767;28;20467;-86
2021/12/25 02:49:36;;;;;;;5.27;4.30;;;12.40;61.80;;;;;;5076817;28;20487;-86
2021/12/25 02:52:06;;;;;;;5.90;4.37;;;12.50;61.50;;;;;;5074045;28;20456;-86
2021/12/25 02:54:35;;;;;;;4.77;4.33;;;12.40;61.10;;;;;;5089906;28;20477;-85
2021/12/25 02:57:02;;;;;;;12.37;6.67;;;12.40;61.00;;;;;;5091370;28;20793;-84
2021/12/25 02:59:29;;;;;;;8.87;6.83;;;12.40;61.10;;;;;;5076746;28;20451;-86
2021/12/25 03:02:03;;;;;;;7.60;4.93;;;12.40;61.60;;;;;;5077026;28;20969;-86
2021/12/25 03:04:29;;;;;;;7.37;5.40;;;12.50;61.70;;;;;;5089393;28;20952;-86
2021/12/25 03:06:56;;;;;;;8.60;5.60;;;12.50;61.50;;;;;;5041305;28;20462;-85
2021/12/25 03:09:23;;;;;;;6.97;5.33;;;12.40;61.30;;;;;;5071807;28;20533;-86
2021/12/25 03:11:53;;;;;;;14.17;9.07;;;12.40;61.10;;;;;;5094431;28;20462;-85
2021/12/25 03:14:32;;;;;;;10.53;7.80;;;12.10;61.70;;;;;;5072479;28;20479;-86
2021/12/25 03:16:59;;;;;;;13.23;6.60;;;12.00;62.20;;;;;;5074935;28;20819;-85
2021/12/25 03:19:31;;;;;;;9.30;6.90;;;12.00;62.50;;;;;;5080272;28;20542;-87
2021/12/25 03:21:59;;;;;;;10.83;6.50;;;11.90;62.80;;;;;;5090197;28;20969;-85
2021/12/25 03:24:26;;;;;;;10.00;6.00;;;11.80;63.50;;;;;;5065914;28;20482;-85
2021/12/25 03:26:57;;;;;;;14.20;6.27;;;11.80;63.40;;;;;;5073246;28;20563;-85
2021/12/25 03:29:24;;;;;;;8.33;5.30;;;12.00;63.00;;;;;;5075399;28;20455;-85
2021/12/25 03:31:52;;;;;;;6.43;5.17;;;12.00;62.50;;;;;;5063697;28;20871;-85
2021/12/25 03:34:19;;;;;;;7.10;5.53;;;11.90;63.00;;;;;;5094145;28;20502;-85
2021/12/25 03:36:47;;;;;;;7.90;6.30;;;11.80;63.40;;;;;;5095087;28;20473;-81
2021/12/25 03:39:14;;;;;;;5.67;5.17;;;11.80;63.40;;;;;;5080014;28;20474;-84
2021/12/25 03:41:42;;;;;;;7.00;5.23;;;11.90;63.00;;;;;;5080913;28;20560;-84
2021/12/25 03:44:10;;;;;;;7.83;5.10;;;11.90;62.80;;;;;;5080631;28;20475;-85
2021/12/25 03:46:39;;;;;;;6.40;5.27;;;12.00;62.60;;;;;;5080236;28;21506;-84
2021/12/25 03:49:13;;;;;;;6.27;4.63;;;12.10;62.20;;;;;;5092766;28;20894;-85
2021/12/25 04:00:02;;;;;;;12.03;7.73;;;12.00;62.50;;;;;;5096471;28;20477;-85
2021/12/25 04:02:36;;;;;;;7.23;6.07;;;11.80;63.40;;;;;;5074089;27;20513;-85
2021/12/25 04:05:13;;;;;;;8.93;6.07;;;11.90;63.10;;;;;;5075645;28;20462;-85
2021/12/25 04:08:00;;;;;;;8.83;6.00;;;12.00;62.60;;;;;;5061558;28;20947;-85
2021/12/25 04:10:28;;;;;;;8.03;5.37;;;12.10;62.20;;;;;;5073847;28;20475;-85
2021/12/25 04:12:56;;;;;;;6.70;5.70;;;12.20;61.70;;;;;;5087445;28;20488;-85
2021/12/25 04:15:24;;;;;;;8.73;6.00;;;12.30;61.50;;;;;;5094917;28;20486;-85
2021/12/25 04:17:52;;;;;;;6.30;5.37;;;12.30;61.10;;;;;;5080355;28;20439;-85
2021/12/25 04:20:20;;;;;;;7.63;4.80;;;12.30;60.90;;;;;;5096789;27;20993;-83
2021/12/25 04:22:53;;;;;;;8.03;5.57;;;12.30;61.70;;;;;;5091290;28;20487;-82
2021/12/25 04:25:25;;;;;;;6.73;5.40;;;12.00;62.30;;;;;;5096791;28;20463;-84
2021/12/25 04:27:52;;;;;;;9.00;5.47;;;11.70;63.80;;;;;;5093429;28;20992;-85
2021/12/25 04:30:30;;;;;;;7.23;4.80;;;11.90;63.60;;;;;;5094601;28;20461;-85
2021/12/25 05:03:43;;;;;;;8.63;6.20;;;12.20;61.00;;;;;;5066359;28;20471;-85
2021/12/25 05:06:23;;;;;;;11.50;6.70;;;12.20;60.80;;;;;;5096932;28;20459;-83
2021/12/25 05:08:50;;;;;;;10.47;6.63;;;12.20;60.80;;;;;;5076982;28;20447;-84
2021/12/25 05:11:17;;;;;;;13.33;7.83;;;12.10;61.00;;;;;;5078088;28;20455;-85
2021/12/25 05:13:46;;;;;;;10.03;6.53;;;12.10;61.20;;;;;;5096819;28;20477;-86
2021/12/25 05:16:13;;;;;;;9.63;6.77;;;12.10;61.20;;;;;;5061442;28;20954;-84
2021/12/25 05:18:40;;;;;;;10.97;6.80;;;12.10;61.30;;;;;;5095323;28;20466;-85
2021/12/25 05:21:08;;;;;;;8.63;6.00;;;12.10;61.50;;;;;;5082307;28;20834;-85
2021/12/25 05:23:37;;;;;;;8.00;6.23;;;12.00;61.60;;;;;;5053579;28;1049517;-83
2021/12/25 05:26:04;;;;;;;9.50;6.27;;;12.10;61.90;;;;;;5084611;28;20463;-85
2021/12/25 05:28:39;;;;;;;7.57;5.60;;;12.10;61.80;;;;;;5086150;28;20945;-84
2021/12/25 05:31:08;;;;;;;9.73;5.70;;;12.10;61.60;;;;;;5082844;28;20537;-85
2021/12/25 05:33:46;;;;;;;9.43;7.20;;;12.10;61.20;;;;;;5099147;28;20523;-84
2021/12/25 05:36:29;;;;;;;9.90;6.70;;;12.00;61.40;;;;;;5084122;28;20456;-84
2021/12/25 05:39:14;;;;;;;9.70;6.57;;;12.00;61.70;;;;;;5066683;28;20459;-84
2021/12/25 05:41:44;;;;;;;16.43;6.90;;;11.90;61.80;;;;;;5100096;28;20455;-84
2021/12/25 05:44:18;;;;;;;13.70;10.93;;;12.00;61.60;;;;;;5082644;28;20570;-84
2021/12/25 05:46:52;;;;;;;12.60;9.70;;;11.80;61.90;;;;;;5078895;28;20530;-84
2021/12/25 05:49:20;;;;;;;13.83;7.63;;;11.70;62.30;;;;;;5100473;28;20976;-84
2021/12/25 05:52:22;;;;;;;13.63;8.00;;;11.60;62.80;;;;;;5045072;28;20491;-82
2021/12/25 05:55:06;;;;;;;13.00;7.23;;;11.40;63.50;;;;;;5082124;28;20462;-84
2021/12/25 05:58:04;;;;;;;12.33;7.93;;;11.40;63.80;;;;;;5104440;27;20447;-84
2021/12/25 06:00:59;;;;;;;12.80;7.80;;;11.60;63.20;;;;;;5090019;28;20819;-84
2021/12/25 06:03:26;;;;;;;12.60;8.20;;;11.70;62.70;;;;;;5065521;28;20517;-83
2021/12/25 06:05:53;;;;;;;11.37;8.10;;;11.80;62.30;;;;;;5079139;28;20537;-84
2021/12/25 06:08:20;;;;;;;11.17;8.30;;;11.80;62.20;;;;;;5079109;28;20444;-84
2021/12/25 06:10:49;;;;;;;11.40;6.97;;;11.80;61.90;;;;;;5097807;28;20504;-84
2021/12/25 06:13:20;;;;;;;10.43;6.90;;;11.70;62.10;;;;;;5077557;28;20910;-84
2021/12/25 06:15:47;;;;;;;18.80;12.83;;;11.60;63.00;;;;;;5080282;28;20491;-83
2021/12/25 06:18:25;;;;;;;22.80;11.30;;;11.50;63.60;;;;;;5095138;28;20507;-84
2021/12/25 06:21:10;;;;;;;16.63;11.40;;;11.20;64.00;;;;;;5078345;28;20471;-84
2021/12/25 06:24:00;;;;;;;21.10;10.30;;;11.30;63.80;;;;;;5081633;28;20553;-85
2021/12/25 06:26:47;;;;;;;12.80;7.10;;;11.50;63.20;;;;;;5083187;28;20443;-84
2021/12/25 06:29:29;;;;;;;12.90;7.60;;;11.40;63.50;;;;;;5102463;28;20538;-84
2021/12/25 06:32:09;;;;;;;10.70;6.87;;;11.40;63.80;;;;;;5095006;28;20451;-84
2021/12/25 06:35:14;;;;;;;34.83;15.20;;;11.40;63.80;;;;;;5006358;28;20450;-85
2021/12/25 06:38:00;;;;;;;56.07;19.17;;;11.30;63.90;;;;;;5021111;28;20860;-84
2021/12/25 06:40:46;;;;;;;266.47;48.83;;;11.30;64.00;;;;;;5078541;28;20466;-82
2021/12/25 06:43:14;;;;;;;110.70;25.03;;;11.00;64.60;;;;;;5093860;28;20458;-85
2021/12/25 06:45:42;;;;;;;9.63;6.53;;;11.10;64.20;;;;;;5095444;28;20565;-84
2021/12/25 06:48:09;;;;;;;6.80;5.00;;;10.90;64.40;;;;;;5074348;28;20951;-84
2021/12/25 06:50:55;;;;;;;4.83;2.90;;;11.00;64.60;;;;;;5095762;27;20451;-84
2021/12/25 06:53:45;;;;;;;3.63;3.20;;;10.80;63.80;;;;;;5075246;28;20534;-85
2021/12/25 06:56:31;;;;;;;3.43;3.03;;;10.60;63.50;;;;;;5093094;28;20457;-85
2021/12/25 06:59:08;;;;;;;6.77;5.30;;;10.50;63.80;;;;;;5079577;28;20453;-84
2021/12/25 07:01:41;;;;;;;5.83;4.03;;;10.60;63.70;;;;;;5068321;28;20470;-85
2021/12/25 07:04:14;;;;;;;9.30;5.87;;;10.50;63.00;;;;;;5062035;28;21854;-83
2021/12/25 07:06:59;;;;;;;7.83;4.97;;;10.60;63.00;;;;;;5096310;28;20520;-84
2021/12/25 07:09:45;;;;;;;7.03;4.17;;;10.60;62.40;;;;;;5073037;28;20447;-83
2021/12/25 07:12:28;;;;;;;3.97;2.77;;;10.50;62.10;;;;;;5074391;28;20516;-83
2021/12/25 07:15:29;;;;;;;3.43;2.87;;;10.50;62.20;;;;;;5075341;28;20806;-83
2021/12/25 07:18:15;;;;;;;3.37;2.57;;;10.50;61.30;;;;;;5092848;28;20456;-83
2021/12/25 07:20:54;;;;;;;2.90;2.63;;;10.50;61.60;;;;;;5076250;28;20472;-84
2021/12/25 07:23:36;;;;;;;5.03;3.47;;;10.30;60.80;;;;;;5061201;28;20544;-84
2021/12/25 07:26:23;;;;;;;4.37;3.23;;;10.10;61.60;;;;;;5061998;28;20490;-81
2021/12/25 07:29:13;;;;;;;3.80;2.43;;;10.10;61.10;;;;;;5080073;28;20524;-84
2021/12/25 07:31:42;;;;;;;4.80;2.90;;;10.10;60.30;;;;;;5098259;28;20463;-85
2021/12/25 07:34:10;;;;;;;2.10;1.90;;;9.70;62.40;;;;;;5096720;28;20899;-84
2021/12/25 07:36:37;;;;;;;3.30;2.90;;;9.50;63.10;;;;;;5095547;28;20470;-84
2021/12/25 07:39:04;;;;;;;3.20;3.00;;;9.40;62.70;;;;;;5081134;28;20651;-85
2021/12/25 07:41:31;;;;;;;6.37;2.40;;;9.20;63.10;;;;;;5093833;28;20479;-85
2021/12/25 07:44:00;;;;;;;5.57;3.10;;;9.40;63.40;;;;;;5099483;28;20474;-84
2021/12/25 07:46:39;;;;;;;2.50;2.00;;;9.40;62.50;;;;;;5078705;28;20912;-85
2021/12/25 07:49:14;;;;;;;8.17;5.40;;;9.30;61.90;;;;;;5094004;28;20454;-85
2021/12/25 07:51:41;;;;;;;83.53;30.03;;;9.10;62.90;;;;;;5076031;28;20455;-86
2021/12/25 07:54:09;;;;;;;4.17;3.47;;;9.30;63.20;;;;;;5076107;28;20475;-84
2021/12/25 07:56:36;;;;;;;3.60;3.30;;;9.40;62.30;;;;;;5090380;28;20458;-85
2021/12/25 07:59:03;;;;;;;8.70;6.97;;;9.30;62.20;;;;;;5091824;28;20947;-85
2021/12/25 08:01:32;;;;;;;7.80;6.20;;;9.40;61.90;;;;;;5091971;28;20467;-85
2021/12/25 08:03:59;;;;;;;5.80;5.30;;;9.50;61.10;;;;;;5076580;28;20483;-86
2021/12/25 08:06:27;;;;;;;11.57;9.50;;;9.30;60.90;;;;;;5095025;28;20464;-86
2021/12/25 08:08:56;;;;;;;7.00;6.30;;;9.30;61.30;;;;;;5089989;28;20572;-85
2021/12/25 08:11:23;;;;;;;2.83;2.30;;;9.40;61.50;;;;;;5094680;28;20482;-84
2021/12/25 08:13:50;;;;;;;4.20;3.30;;;9.20;61.10;;;;;;5094089;28;20978;-85
2021/12/25 08:16:17;;;;;;;4.83;2.93;;;9.10;61.00;;;;;;5078643;28;21064;-86
2021/12/25 08:18:44;;;;;;;4.10;3.00;;;9.00;61.30;;;;;;5099971;28;20447;-84
2021/12/25 08:21:30;;;;;;;3.90;3.30;;;9.00;61.70;;;;;;5101172;27;20474;-86
2021/12/25 08:24:33;;;;;;;4.37;3.40;;;8.90;61.60;;;;;;5021917;28;20471;-85
2021/12/25 08:27:18;;;;;;;5.20;3.80;;;8.90;61.70;;;;;;5080614;28;20857;-86
2021/12/25 08:30:06;;;;;;;3.30;2.80;;;9.10;61.50;;;;;;5101793;28;20582;-85
2021/12/25 08:32:55;;;;;;;4.33;3.37;;;9.10;61.30;;;;;;5095364;28;20479;-86
2021/12/25 08:35:41;;;;;;;5.67;4.10;;;9.00;60.20;;;;;;5078449;28;20488;-83
2021/12/25 08:38:11;;;;;;;4.70;3.93;;;8.60;60.20;;;;;;5081679;28;20605;-86
2021/12/25 08:40:38;;;;;;;7.03;5.67;;;8.40;62.10;;;;;;5102809;27;20450;-85
2021/12/25 08:43:07;;;;;;;6.23;3.83;;;8.50;61.80;;;;;;5099401;28;20502;-84
2021/12/25 08:45:44;;;;;;;5.40;4.07;;;8.60;60.70;;;;;;5079956;28;20463;-86
2021/12/25 08:48:15;;;;;;;4.83;4.27;;;8.50;60.60;;;;;;5079033;28;20837;-84
2021/12/25 08:50:45;;;;;;;7.40;4.77;;;8.40;60.20;;;;;;5097325;28;20458;-84
2021/12/25 08:53:13;;;;;;;5.17;4.30;;;8.50;60.70;;;;;;5079310;28;20479;-84
2021/12/25 08:55:40;;;;;;;4.77;3.70;;;8.60;60.40;;;;;;5104266;27;20851;-85
2021/12/25 08:58:07;;;;;;;6.77;3.60;;;8.60;60.00;;;;;;5099428;28;20466;-84
2021/12/25 09:00:34;;;;;;;4.40;3.63;;;8.60;60.10;;;;;;5087195;28;20483;-84
2021/12/25 09:03:01;;;;;;;43.63;18.20;;;8.70;60.20;;;;;;5094113;27;20487;-85
2021/12/25 09:05:28;;;;;;;13.93;7.70;;;8.80;60.20;;;;;;5074849;27;20451;-85
2021/12/25 09:07:55;;;;;;;8.23;5.03;;;8.60;60.50;;;;;;5099057;28;20821;-84
2021/12/25 09:10:23;;;;;;;3.83;3.23;;;8.50;60.10;;;;;;5097878;28;20463;-85
2021/12/25 09:12:50;;;;;;;4.20;3.50;;;8.40;60.30;;;;;;5074897;28;20456;-85
2021/12/25 09:15:17;;;;;;;5.23;3.93;;;8.50;60.10;;;;;;5097563;28;20880;-86
2021/12/25 09:17:46;;;;;;;4.20;3.40;;;8.70;60.80;;;;;;5094892;28;20450;-84
2021/12/25 09:20:15;;;;;;;4.90;3.70;;;8.80;59.30;;;;;;5082103;28;21061;-85
2021/12/25 09:22:42;;;;;;;4.37;3.37;;;8.50;59.90;;;;;;5097078;27;20512;-86
2021/12/25 09:25:09;;;;;;;3.83;3.40;;;8.40;59.90;;;;;;5073436;28;20883;-86
2021/12/25 09:27:38;;;;;;;3.73;3.43;;;8.50;60.00;;;;;;5093945;28;20470;-84
2021/12/25 09:30:06;;;;;;;3.50;3.00;;;8.60;59.30;;;;;;5078018;28;20463;-85
2021/12/25 09:32:33;;;;;;;4.30;3.57;;;8.20;59.70;;;;;;5076629;27;20863;-85
2021/12/25 09:35:01;;;;;;;6.13;4.93;;;8.10;60.20;;;;;;5057080;28;20955;-85
2021/12/25 09:37:28;;;;;;;5.37;3.60;;;8.40;60.60;;;;;;5093129;28;20798;-85
2021/12/25 09:39:55;;;;;;;123.03;54.77;;;8.50;59.70;;;;;;5074639;28;20827;-85
2021/12/25 09:42:24;;;;;;;13.87;9.10;;;8.40;60.00;;;;;;5094309;28;20910;-86
2021/12/25 09:44:53;;;;;;;8.60;5.20;;;8.60;59.90;;;;;;5079291;28;20448;-85
2021/12/25 09:47:21;;;;;;;94.17;37.40;;;8.70;59.50;;;;;;5086707;28;20463;-83
2021/12/25 09:49:49;;;;;;;14.23;9.47;;;8.80;59.20;;;;;;5059180;28;20453;-86
2021/12/25 09:52:16;;;;;;;11.27;6.33;;;8.80;58.70;;;;;;5093054;28;20459;-86
2021/12/25 09:54:43;;;;;;;7.73;4.50;;;8.80;58.70;;;;;;5093601;28;20474;-85
2021/12/25 09:57:14;;;;;;;112.27;57.67;;;8.60;58.10;;;;;;5081519;28;20458;-86
2021/12/25 09:59:41;;;;;;;10.47;8.13;;;8.50;58.00;;;;;;5103168;28;20574;-85
2021/12/25 10:02:13;;;;;;;13.00;6.87;;;8.60;58.80;;;;;;5094366;28;21010;-85
2021/12/25 10:04:43;;;;;;;6.70;5.10;;;8.70;59.80;;;;;;5062464;28;21205;-86
2021/12/25 10:07:16;;;;;;;5.80;4.63;;;8.50;58.00;;;;;;5099081;28;20853;-86
2021/12/25 10:09:43;;;;;;;9.87;5.90;;;8.30;58.50;;;;;;5094978;28;20511;-86
2021/12/25 10:12:13;;;;;;;7.63;4.90;;;8.20;58.50;;;;;;5093637;28;20462;-86
2021/12/25 10:14:43;;;;;;;7.53;4.40;;;8.20;58.70;;;;;;5099257;28;21014;-86
2021/12/25 10:17:17;;;;;;;7.43;4.97;;;7.90;59.10;;;;;;5081981;28;20435;-86
2021/12/25 10:19:59;;;;;;;7.17;5.70;;;7.80;59.80;;;;;;5094703;28;20451;-86
2021/12/25 10:22:26;;;;;;;5.63;3.83;;;7.90;59.60;;;;;;5097276;28;20475;-84
2021/12/25 10:25:07;;;;;;;5.50;3.60;;;7.90;59.80;;;;;;5065594;28;20482;-86
2021/12/25 10:27:35;;;;;;;5.43;3.63;;;7.90;58.70;;;;;;5090690;28;20531;-85
2021/12/25 10:30:06;;;;;;;7.30;4.10;;;7.90;58.70;;;;;;5100833;28;20811;-85
2021/12/25 10:32:39;;;;;;;5.30;3.80;;;7.90;59.20;;;;;;5094833;28;20455;-85
2021/12/25 10:35:15;;;;;;;7.23;5.13;;;7.90;58.40;;;;;;5067886;28;20495;-86
2021/12/25 10:37:43;;;;;;;7.77;4.60;;;7.80;58.50;;;;;;5087779;28;20462;-86
2021/12/25 10:40:25;;;;;;;10.50;6.10;;;7.70;59.00;;;;;;5092573;28;20482;-86
2021/12/25 10:42:53;;;;;;;5.30;3.10;;;7.80;59.50;;;;;;5090807;28;21323;-85
2021/12/25 10:45:22;;;;;;;3.20;2.77;;;7.90;58.80;;;;;;5092862;27;20834;-83
2021/12/25 10:48:03;;;;;;;6.57;3.97;;;7.50;58.40;;;;;;5092861;28;20989;-83
2021/12/25 10:50:37;;;;;;;4.97;4.47;;;7.40;59.70;;;;;;5089450;27;20462;-85
2021/12/25 10:53:21;;;;;;;6.27;5.10;;;7.70;60.00;;;;;;5096290;28;20495;-85
2021/12/25 10:55:49;;;;;;;4.20;2.97;;;7.90;59.60;;;;;;5085050;28;20992;-84
2021/12/25 10:58:21;;;;;;;3.50;2.63;;;7.70;59.20;;;;;;5102466;28;20450;-85
2021/12/25 11:00:55;;;;;;;3.60;2.53;;;7.30;59.30;;;;;;5082096;28;21108;-85
2021/12/25 11:03:33;;;;;;;3.93;3.17;;;7.30;59.50;;;;;;5089380;28;20486;-86
2021/12/25 11:06:06;;;;;;;5.73;3.20;;;7.50;59.20;;;;;;5079335;28;20444;-86
2021/12/25 11:08:34;;;;;;;3.10;2.80;;;7.70;59.40;;;;;;5097002;28;20455;-86
2021/12/25 11:11:05;;;;;;;3.67;2.93;;;7.60;59.00;;;;;;5092834;28;20983;-86
2021/12/25 11:13:34;;;;;;;3.43;3.13;;;7.70;59.00;;;;;;5100194;28;20459;-86
2021/12/25 11:16:17;;;;;;;4.50;2.20;;;7.80;58.10;;;;;;5085101;28;20454;-85
2021/12/25 11:19:02;;;;;;;4.93;3.50;;;7.70;57.70;;;;;;5098613;28;20448;-84
2021/12/25 11:21:29;;;;;;;4.80;2.70;;;7.10;59.20;;;;;;5058488;28;20463;-85
2021/12/25 11:24:09;;;;;;;3.27;2.97;;;6.90;59.60;;;;;;5075671;28;20848;-86
2021/12/25 11:26:38;;;;;;;3.17;2.30;;;7.00;60.40;;;;;;5087221;28;20956;-85
2021/12/25 11:29:07;;;;;;;3.10;2.70;;;7.10;59.40;;;;;;5082422;28;20467;-86
2021/12/25 11:31:34;;;;;;;4.47;3.97;;;7.10;59.30;;;;;;5079237;28;20976;-84
2021/12/25 11:34:03;;;;;;;3.90;2.93;;;7.20;59.70;;;;;;5093003;28;20562;-86
2021/12/25 11:36:31;;;;;;;2.57;2.03;;;7.30;59.10;;;;;;5073684;28;20455;-85
2021/12/25 11:38:58;;;;;;;8.73;5.57;;;7.30;58.90;;;;;;5093416;28;20467;-85
2021/12/25 11:41:27;;;;;;;2.77;2.53;;;7.30;59.20;;;;;;5091805;28;20451;-86
2021/12/25 11:43:55;;;;;;;3.93;3.37;;;7.30;59.00;;;;;;5066223;28;20986;-85
2021/12/25 11:46:36;;;;;;;2.87;2.43;;;7.30;58.60;;;;;;5061140;28;20478;-85
2021/12/25 11:49:10;;;;;;;4.47;4.07;;;7.40;58.80;;;;;;5077690;28;20523;-85
2021/12/25 11:51:40;;;;;;;6.70;4.13;;;7.30;59.00;;;;;;5092559;28;20465;-85
2021/12/25 11:54:42;;;;;;;3.50;3.20;;;7.30;58.80;;;;;;5077096;28;20486;-84
2021/12/25 11:57:45;;;;;;;4.00;3.40;;;7.50;59.00;;;;;;5083516;28;20451;-85
2021/12/25 12:00:00;;;;;;;4.87;3.53;;;7.60;58.30;;;;;;5077659;28;20505;-85
2021/12/25 12:02:42;;;;;;;5.17;4.17;;;7.70;58.60;;;;;;5079251;28;20506;-83
2021/12/25 12:05:22;;;;;;;5.40;4.90;;;7.70;58.30;;;;;;5097631;27;21013;-84
2021/12/25 12:08:02;;;;;;;4.93;3.23;;;7.50;57.90;;;;;;5098473;27;21082;-82
2021/12/25 12:10:51;;;;;;;4.17;3.67;;;7.50;58.20;;;;;;5076798;28;20489;-85
2021/12/25 12:14:12;;;;;;;3.47;3.17;;;7.60;58.80;;;;;;5059980;28;20816;-84
2021/12/25 12:17:00;;;;;;;4.33;3.77;;;7.40;58.50;;;;;;5088958;28;20454;-85
2021/12/25 12:19:44;;;;;;;2.90;2.50;;;7.40;58.70;;;;;;5081815;28;20552;-85
2021/12/25 12:25:47;;;;;;;3.20;2.70;;;7.10;59.40;;;;;;5089289;27;20456;-85
2021/12/25 12:28:14;;;;;;;3.10;2.57;;;7.10;59.50;;;;;;5086834;28;20455;-85
2021/12/25 12:30:54;;;;;;;4.30;3.20;;;7.20;59.10;;;;;;5080697;28;20446;-85
2021/12/25 12:33:40;;;;;;;2.43;2.23;;;7.20;58.90;;;;;;5100978;27;20828;-83
2021/12/25 12:36:31;;;;;;;4.13;3.30;;;7.00;58.60;;;;;;5075785;28;20447;-86
2021/12/25 12:39:18;;;;;;;3.40;2.50;;;6.80;59.10;;;;;;5079073;28;20526;-86
2021/12/25 12:41:55;;;;;;;4.23;2.33;;;6.70;59.70;;;;;;5098019;28;20454;-86
2021/12/25 12:44:29;;;;;;;3.47;3.07;;;6.70;59.90;;;;;;5095294;28;20618;-85
2021/12/25 12:47:00;;;;;;;3.73;2.77;;;6.80;60.20;;;;;;5096375;28;20444;-85
2021/12/25 12:49:31;;;;;;;3.20;3.00;;;6.70;59.60;;;;;;5079570;28;20458;-85
2021/12/25 12:52:18;;;;;;;3.43;3.10;;;6.90;59.50;;;;;;5080400;28;20455;-86
2021/12/25 12:54:48;;;;;;;4.30;2.73;;;6.90;59.90;;;;;;5093066;28;20490;-86
2021/12/25 12:57:22;;;;;;;3.23;2.93;;;7.00;59.10;;;;;;5077727;28;20514;-86
2021/12/25 12:59:52;;;;;;;5.30;3.70;;;6.90;59.30;;;;;;5083017;28;20468;-86
2021/12/25 13:02:24;;;;;;;3.10;2.80;;;6.80;59.60;;;;;;5096135;28;20454;-86
2021/12/25 13:04:55;;;;;;;3.27;2.20;;;6.60;59.80;;;;;;5087303;28;20969;-86
2021/12/25 13:07:23;;;;;;;3.00;2.73;;;6.80;60.00;;;;;;5070211;28;20448;-85
2021/12/25 13:10:03;;;;;;;4.53;3.70;;;6.60;59.90;;;;;;5098394;28;20461;-85
2021/12/25 13:12:43;;;;;;;3.23;2.67;;;6.80;60.20;;;;;;5097333;28;20826;-85
2021/12/25 13:15:15;;;;;;;4.27;2.53;;;6.60;59.60;;;;;;5061044;28;21024;-85
2021/12/25 13:17:54;;;;;;;5.70;3.60;;;6.50;60.80;;;;;;5077762;28;20576;-86
2021/12/25 13:20:34;;;;;;;17.60;6.10;;;6.60;60.20;;;;;;5075746;28;20551;-84
2021/12/25 13:23:04;;;;;;;14.00;5.63;;;6.90;60.60;;;;;;5095790;27;20562;-86
2021/12/25 13:25:33;;;;;;;3.30;2.80;;;7.10;59.90;;;;;;5098663;27;20454;-86
2021/12/25 13:28:03;;;;;;;3.10;2.80;;;7.20;58.70;;;;;;5085965;28;20451;-84
2021/12/25 13:30:31;;;;;;;3.13;2.83;;;7.20;58.90;;;;;;5095536;28;20448;-86
2021/12/25 13:33:08;;;;;;;2.50;2.30;;;7.00;58.70;;;;;;5091085;27;20486;-85
2021/12/25 13:35:35;;;;;;;2.90;2.70;;;6.90;58.90;;;;;;5094708;28;20810;-85
2021/12/25 13:38:03;;;;;;;4.20;3.07;;;7.00;59.30;;;;;;5063013;28;20458;-86
2021/12/25 13:40:31;;;;;;;4.10;3.47;;;7.00;58.70;;;;;;5096739;28;20530;-85
2021/12/25 13:43:05;;;;;;;4.70;4.17;;;7.00;59.00;;;;;;5078489;28;20514;-85
2021/12/25 13:45:32;;;;;;;5.27;3.40;;;6.90;59.30;;;;;;5075360;28;20455;-84
2021/12/25 13:48:00;;;;;;;2.80;2.60;;;7.00;58.90;;;;;;5096892;27;21022;-85
2021/12/25 13:50:27;;;;;;;3.33;3.07;;;7.20;59.40;;;;;;5093575;28;20841;-83
2021/12/25 13:52:58;;;;;;;2.37;2.17;;;7.30;59.10;;;;;;5095721;28;20525;-86
2021/12/25 13:55:27;;;;;;;2.67;2.27;;;7.40;58.30;;;;;;5073337;28;20455;-85
2021/12/25 13:57:59;;;;;;;4.07;2.13;;;7.20;57.70;;;;;;5078625;28;20464;-85
2021/12/25 14:00:28;;;;;;;3.83;3.23;;;7.00;58.50;;;;;;5076911;28;20822;-85
2021/12/25 14:02:58;;;;;;;2.30;1.80;;;7.00;59.10;;;;;;5091715;28;20474;-85
2021/12/25 14:05:27;;;;;;;4.70;3.67;;;6.70;58.90;;;;;;5083968;28;20936;-85
2021/12/25 14:07:55;;;;;;;17.20;8.90;;;6.60;59.90;;;;;;5095151;28;20453;-85
2021/12/25 14:10:24;;;;;;;5.37;3.47;;;6.90;59.80;;;;;;5058489;28;20836;-85
2021/12/25 14:12:53;;;;;;;4.60;3.80;;;6.90;59.30;;;;;;5089671;28;20483;-85